sensor_id;sensor_type;location;lat;lon;timestamp;P1;durP1;ratioP1;P2;durP2;ratioP2
2434;SDS011;1228;51.022;6.764;2023-03-01T00:01:47;9.03;;;8.43;;
2434;SDS011;1228;51.022;6.764;2023-03-01T00:04:13;9.10;;;8.60;;
2434;SDS011;1228;51.022;6.764;2023-03-01T00:06:38;11.13;;;10.33;;
2434;SDS011;1228;51.022;6.764;2023-03-01T00:09:04;8.70;;;8.20;;
2434;SDS011;1228;51.022;6.764;2023-03-01T00:11:30;10.63;;;9.83;;
2434;SDS011;1228;51.022;6.764;2023-03-01T00:13:59;9.23;;;8.63;;
2434;SDS011;1228;51.022;6.764;2023-03-01T00:16:30;8.77;;;8.37;;
2434;SDS011;1228;51.022;6.764;2023-03-01T00:18:58;10.00;;;9.40;;
2434;SDS011;1228;51.022;6.764;2023-03-01T00:21:24;9.47;;;8.83;;
2434;SDS011;1228;51.022;6.764;2023-03-01T00:23:51;10.30;;;9.57;;
2434;SDS011;1228;51.022;6.764;2023-03-01T00:26:18;10.07;;;9.33;;
2434;SDS011;1228;51.022;6.764;2023-03-01T00:28:46;8.50;;;8.10;;
2434;SDS011;1228;51.022;6.764;2023-03-01T00:31:16;9.27;;;8.70;;
2434;SDS011;1228;51.022;6.764;2023-03-01T00:33:46;9.97;;;9.47;;
2434;SDS011;1228;51.022;6.764;2023-03-01T00:36:12;9.30;;;8.80;;
2434;SDS011;1228;51.022;6.764;2023-03-01T00:38:41;9.53;;;8.93;;
2434;SDS011;1228;51.022;6.764;2023-03-01T00:41:10;8.53;;;8.07;;
2434;SDS011;1228;51.022;6.764;2023-03-01T00:43:37;10.50;;;9.90;;
2434;SDS011;1228;51.022;6.764;2023-03-01T00:46:04;9.63;;;9.03;;
2434;SDS011;1228;51.022;6.764;2023-03-01T00:48:32;9.17;;;8.57;;
2434;SDS011;1228;51.022;6.764;2023-03-01T00:51:04;8.87;;;8.47;;
2434;SDS011;1228;51.022;6.764;2023-03-01T00:53:36;9.87;;;9.13;;
2434;SDS011;1228;51.022;6.764;2023-03-01T00:56:02;9.13;;;8.63;;
2434;SDS011;1228;51.022;6.764;2023-03-01T00:58:29;8.80;;;8.33;;
2434;SDS011;1228;51.022;6.764;2023-03-01T01:00:55;9.00;;;8.40;;
2434;SDS011;1228;51.022;6.764;2023-03-01T01:03:21;9.83;;;9.13;;
2434;SDS011;1228;51.022;6.764;2023-03-01T01:05:46;8.33;;;7.93;;
2434;SDS011;1228;51.022;6.764;2023-03-01T01:08:12;8.87;;;8.27;;
2434;SDS011;1228;51.022;6.764;2023-03-01T01:10:38;7.90;;;7.47;;
2434;SDS011;1228;51.022;6.764;2023-03-01T01:13:03;9.10;;;8.27;;
2434;SDS011;1228;51.022;6.764;2023-03-01T01:15:33;8.47;;;8.07;;
2434;SDS011;1228;51.022;6.764;2023-03-01T01:17:59;8.53;;;8.13;;
2434;SDS011;1228;51.022;6.764;2023-03-01T01:20:25;10.43;;;9.73;;
2434;SDS011;1228;51.022;6.764;2023-03-01T01:22:51;9.40;;;8.73;;
2434;SDS011;1228;51.022;6.764;2023-03-01T01:25:17;8.60;;;8.10;;
2434;SDS011;1228;51.022;6.764;2023-03-01T01:27:43;8.73;;;8.23;;
2434;SDS011;1228;51.022;6.764;2023-03-01T01:30:09;9.57;;;8.67;;
2434;SDS011;1228;51.022;6.764;2023-03-01T01:32:35;8.67;;;8.07;;
2434;SDS011;1228;51.022;6.764;2023-03-01T01:35:00;7.90;;;7.50;;
2434;SDS011;1228;51.022;6.764;2023-03-01T01:37:26;8.57;;;7.87;;
2434;SDS011;1228;51.022;6.764;2023-03-01T01:39:56;9.13;;;8.53;;
2434;SDS011;1228;51.022;6.764;2023-03-01T01:42:26;9.77;;;7.73;;
2434;SDS011;1228;51.022;6.764;2023-03-01T01:47:51;8.50;;;8.10;;
2434;SDS011;1228;51.022;6.764;2023-03-01T01:50:19;8.30;;;7.90;;
2434;SDS011;1228;51.022;6.764;2023-03-01T01:52:45;8.27;;;7.73;;
2434;SDS011;1228;51.022;6.764;2023-03-01T01:55:16;9.47;;;8.67;;
2434;SDS011;1228;51.022;6.764;2023-03-01T01:57:47;8.67;;;8.10;;
2434;SDS011;1228;51.022;6.764;2023-03-01T02:00:23;9.53;;;8.63;;
2434;SDS011;1228;51.022;6.764;2023-03-01T02:02:51;8.77;;;8.37;;
2434;SDS011;1228;51.022;6.764;2023-03-01T02:08:15;8.93;;;8.33;;
2434;SDS011;1228;51.022;6.764;2023-03-01T02:10:44;9.10;;;8.53;;
2434;SDS011;1228;51.022;6.764;2023-03-01T02:13:10;8.83;;;8.33;;
2434;SDS011;1228;51.022;6.764;2023-03-01T02:15:38;10.00;;;9.40;;
2434;SDS011;1228;51.022;6.764;2023-03-01T02:18:05;14.03;;;9.30;;
2434;SDS011;1228;51.022;6.764;2023-03-01T02:20:40;9.30;;;8.73;;
2434;SDS011;1228;51.022;6.764;2023-03-01T02:23:10;8.03;;;7.63;;
2434;SDS011;1228;51.022;6.764;2023-03-01T02:30:43;9.13;;;8.57;;
2434;SDS011;1228;51.022;6.764;2023-03-01T02:33:31;9.87;;;9.27;;
2434;SDS011;1228;51.022;6.764;2023-03-01T02:36:00;9.57;;;8.83;;
2434;SDS011;1228;51.022;6.764;2023-03-01T02:38:29;8.80;;;8.30;;
2434;SDS011;1228;51.022;6.764;2023-03-01T02:40:55;8.93;;;8.40;;
2434;SDS011;1228;51.022;6.764;2023-03-01T02:43:23;8.70;;;8.10;;
2434;SDS011;1228;51.022;6.764;2023-03-01T02:45:56;9.43;;;8.73;;
2434;SDS011;1228;51.022;6.764;2023-03-01T02:48:23;10.03;;;9.43;;
2434;SDS011;1228;51.022;6.764;2023-03-01T02:51:11;19.63;;;8.83;;
2434;SDS011;1228;51.022;6.764;2023-03-01T02:56:33;9.00;;;8.60;;
2434;SDS011;1228;51.022;6.764;2023-03-01T02:58:59;10.03;;;9.33;;
2434;SDS011;1228;51.022;6.764;2023-03-01T03:01:25;9.80;;;8.90;;
2434;SDS011;1228;51.022;6.764;2023-03-01T03:04:01;9.40;;;8.73;;
2434;SDS011;1228;51.022;6.764;2023-03-01T03:06:29;9.33;;;8.83;;
2434;SDS011;1228;51.022;6.764;2023-03-01T03:08:54;13.50;;;9.60;;
2434;SDS011;1228;51.022;6.764;2023-03-01T03:11:20;8.83;;;7.97;;
2434;SDS011;1228;51.022;6.764;2023-03-01T03:13:46;9.00;;;8.50;;
2434;SDS011;1228;51.022;6.764;2023-03-01T03:16:13;8.70;;;8.30;;
2434;SDS011;1228;51.022;6.764;2023-03-01T03:18:39;10.03;;;8.77;;
2434;SDS011;1228;51.022;6.764;2023-03-01T03:21:07;9.73;;;9.23;;
2434;SDS011;1228;51.022;6.764;2023-03-01T03:23:35;9.53;;;8.90;;
2434;SDS011;1228;51.022;6.764;2023-03-01T03:26:02;10.00;;;9.30;;
2434;SDS011;1228;51.022;6.764;2023-03-01T03:28:31;9.70;;;9.00;;
2434;SDS011;1228;51.022;6.764;2023-03-01T03:30:58;9.67;;;9.07;;
2434;SDS011;1228;51.022;6.764;2023-03-01T03:33:28;9.73;;;8.77;;
2434;SDS011;1228;51.022;6.764;2023-03-01T03:35:55;10.10;;;9.17;;
2434;SDS011;1228;51.022;6.764;2023-03-01T03:38:20;11.07;;;10.20;;
2434;SDS011;1228;51.022;6.764;2023-03-01T03:40:51;9.33;;;8.73;;
2434;SDS011;1228;51.022;6.764;2023-03-01T03:43:26;9.10;;;8.57;;
2434;SDS011;1228;51.022;6.764;2023-03-01T03:45:52;10.90;;;10.10;;
2434;SDS011;1228;51.022;6.764;2023-03-01T03:48:19;9.60;;;9.00;;
2434;SDS011;1228;51.022;6.764;2023-03-01T03:50:52;8.73;;;8.23;;
2434;SDS011;1228;51.022;6.764;2023-03-01T03:53:19;9.40;;;8.87;;
2434;SDS011;1228;51.022;6.764;2023-03-01T03:55:45;9.90;;;8.90;;
2434;SDS011;1228;51.022;6.764;2023-03-01T03:58:14;9.17;;;8.67;;
2434;SDS011;1228;51.022;6.764;2023-03-01T04:00:42;10.03;;;9.47;;
2434;SDS011;1228;51.022;6.764;2023-03-01T04:03:10;12.47;;;11.23;;
2434;SDS011;1228;51.022;6.764;2023-03-01T04:05:37;11.60;;;10.60;;
2434;SDS011;1228;51.022;6.764;2023-03-01T04:08:03;9.13;;;8.53;;
2434;SDS011;1228;51.022;6.764;2023-03-01T04:10:33;9.80;;;9.30;;
2434;SDS011;1228;51.022;6.764;2023-03-01T04:13:04;9.70;;;9.13;;
2434;SDS011;1228;51.022;6.764;2023-03-01T04:15:31;9.93;;;9.27;;
2434;SDS011;1228;51.022;6.764;2023-03-01T04:17:57;10.07;;;9.47;;
2434;SDS011;1228;51.022;6.764;2023-03-01T04:20:25;10.20;;;9.50;;
2434;SDS011;1228;51.022;6.764;2023-03-01T04:23:26;10.03;;;9.43;;
2434;SDS011;1228;51.022;6.764;2023-03-01T04:25:52;10.13;;;9.20;;
2434;SDS011;1228;51.022;6.764;2023-03-01T04:28:23;10.73;;;9.77;;
2434;SDS011;1228;51.022;6.764;2023-03-01T04:30:54;8.97;;;8.50;;
2434;SDS011;1228;51.022;6.764;2023-03-01T04:33:22;8.87;;;8.47;;
2434;SDS011;1228;51.022;6.764;2023-03-01T04:35:49;12.37;;;10.27;;
2434;SDS011;1228;51.022;6.764;2023-03-01T04:38:16;9.93;;;9.33;;
2434;SDS011;1228;51.022;6.764;2023-03-01T04:40:42;11.03;;;10.17;;
2434;SDS011;1228;51.022;6.764;2023-03-01T04:43:08;10.37;;;9.67;;
2434;SDS011;1228;51.022;6.764;2023-03-01T04:45:35;9.90;;;9.20;;
2434;SDS011;1228;51.022;6.764;2023-03-01T04:48:02;8.73;;;8.33;;
2434;SDS011;1228;51.022;6.764;2023-03-01T04:50:28;10.00;;;9.27;;
2434;SDS011;1228;51.022;6.764;2023-03-01T04:52:54;10.13;;;9.53;;
2434;SDS011;1228;51.022;6.764;2023-03-01T04:55:23;9.20;;;8.60;;
2434;SDS011;1228;51.022;6.764;2023-03-01T04:57:52;9.93;;;9.33;;
2434;SDS011;1228;51.022;6.764;2023-03-01T05:00:18;9.80;;;9.20;;
2434;SDS011;1228;51.022;6.764;2023-03-01T05:02:48;10.60;;;10.00;;
2434;SDS011;1228;51.022;6.764;2023-03-01T05:05:18;8.87;;;8.37;;
2434;SDS011;1228;51.022;6.764;2023-03-01T05:07:45;10.00;;;9.43;;
2434;SDS011;1228;51.022;6.764;2023-03-01T05:10:10;8.97;;;8.57;;
2434;SDS011;1228;51.022;6.764;2023-03-01T05:12:36;9.63;;;9.13;;
2434;SDS011;1228;51.022;6.764;2023-03-01T05:15:02;10.27;;;9.53;;
2434;SDS011;1228;51.022;6.764;2023-03-01T05:17:32;10.43;;;9.73;;
2434;SDS011;1228;51.022;6.764;2023-03-01T05:19:58;11.40;;;9.67;;
2434;SDS011;1228;51.022;6.764;2023-03-01T05:22:24;10.30;;;9.57;;
2434;SDS011;1228;51.022;6.764;2023-03-01T05:24:50;10.13;;;9.43;;
2434;SDS011;1228;51.022;6.764;2023-03-01T05:27:16;9.60;;;8.80;;
2434;SDS011;1228;51.022;6.764;2023-03-01T05:29:41;10.30;;;9.67;;
2434;SDS011;1228;51.022;6.764;2023-03-01T05:32:07;11.33;;;10.60;;
2434;SDS011;1228;51.022;6.764;2023-03-01T05:34:34;9.50;;;8.83;;
2434;SDS011;1228;51.022;6.764;2023-03-01T05:37:01;9.97;;;9.30;;
2434;SDS011;1228;51.022;6.764;2023-03-01T05:39:28;8.67;;;8.30;;
2434;SDS011;1228;51.022;6.764;2023-03-01T05:41:55;9.40;;;8.80;;
2434;SDS011;1228;51.022;6.764;2023-03-01T05:44:22;9.60;;;9.10;;
2434;SDS011;1228;51.022;6.764;2023-03-01T05:46:49;10.80;;;10.00;;
2434;SDS011;1228;51.022;6.764;2023-03-01T05:49:15;8.87;;;8.17;;
2434;SDS011;1228;51.022;6.764;2023-03-01T05:51:41;10.00;;;9.37;;
2434;SDS011;1228;51.022;6.764;2023-03-01T05:54:08;9.30;;;8.70;;
2434;SDS011;1228;51.022;6.764;2023-03-01T05:56:35;10.47;;;9.57;;
2434;SDS011;1228;51.022;6.764;2023-03-01T05:59:01;9.67;;;9.20;;
2434;SDS011;1228;51.022;6.764;2023-03-01T06:01:29;12.57;;;10.03;;
2434;SDS011;1228;51.022;6.764;2023-03-01T06:03:56;9.73;;;9.17;;
2434;SDS011;1228;51.022;6.764;2023-03-01T06:06:22;9.73;;;9.03;;
2434;SDS011;1228;51.022;6.764;2023-03-01T06:08:48;10.87;;;10.07;;
2434;SDS011;1228;51.022;6.764;2023-03-01T06:11:14;11.00;;;10.00;;
2434;SDS011;1228;51.022;6.764;2023-03-01T06:13:43;10.57;;;9.80;;
2434;SDS011;1228;51.022;6.764;2023-03-01T06:16:09;9.77;;;9.23;;
2434;SDS011;1228;51.022;6.764;2023-03-01T06:18:36;11.60;;;10.30;;
2434;SDS011;1228;51.022;6.764;2023-03-01T06:21:02;10.20;;;9.60;;
2434;SDS011;1228;51.022;6.764;2023-03-01T06:23:29;9.93;;;9.33;;
2434;SDS011;1228;51.022;6.764;2023-03-01T06:25:54;10.80;;;10.17;;
2434;SDS011;1228;51.022;6.764;2023-03-01T06:28:20;11.53;;;10.63;;
2434;SDS011;1228;51.022;6.764;2023-03-01T06:30:46;9.90;;;9.43;;
2434;SDS011;1228;51.022;6.764;2023-03-01T06:33:12;10.30;;;9.57;;
2434;SDS011;1228;51.022;6.764;2023-03-01T06:35:38;10.40;;;9.70;;
2434;SDS011;1228;51.022;6.764;2023-03-01T06:38:04;9.57;;;9.07;;
2434;SDS011;1228;51.022;6.764;2023-03-01T06:40:30;9.97;;;9.27;;
2434;SDS011;1228;51.022;6.764;2023-03-01T06:42:57;11.20;;;10.07;;
2434;SDS011;1228;51.022;6.764;2023-03-01T06:45:23;10.73;;;9.83;;
2434;SDS011;1228;51.022;6.764;2023-03-01T06:47:49;10.30;;;9.60;;
2434;SDS011;1228;51.022;6.764;2023-03-01T06:50:15;10.20;;;9.60;;
2434;SDS011;1228;51.022;6.764;2023-03-01T06:52:41;9.37;;;8.87;;
2434;SDS011;1228;51.022;6.764;2023-03-01T06:55:09;10.13;;;9.30;;
2434;SDS011;1228;51.022;6.764;2023-03-01T06:57:36;10.47;;;9.87;;
2434;SDS011;1228;51.022;6.764;2023-03-01T07:00:03;11.97;;;10.20;;
2434;SDS011;1228;51.022;6.764;2023-03-01T07:02:29;9.03;;;8.53;;
2434;SDS011;1228;51.022;6.764;2023-03-01T07:04:55;9.73;;;9.13;;
2434;SDS011;1228;51.022;6.764;2023-03-01T07:07:20;14.60;;;10.03;;
2434;SDS011;1228;51.022;6.764;2023-03-01T07:09:46;9.97;;;9.37;;
2434;SDS011;1228;51.022;6.764;2023-03-01T07:12:13;10.53;;;9.63;;
2434;SDS011;1228;51.022;6.764;2023-03-01T07:14:39;9.43;;;8.93;;
2434;SDS011;1228;51.022;6.764;2023-03-01T07:17:05;9.50;;;8.83;;
2434;SDS011;1228;51.022;6.764;2023-03-01T07:19:30;10.07;;;9.47;;
2434;SDS011;1228;51.022;6.764;2023-03-01T07:21:56;9.80;;;9.10;;
2434;SDS011;1228;51.022;6.764;2023-03-01T07:24:22;11.53;;;10.60;;
2434;SDS011;1228;51.022;6.764;2023-03-01T07:26:48;12.37;;;11.07;;
2434;SDS011;1228;51.022;6.764;2023-03-01T07:29:15;13.80;;;10.87;;
2434;SDS011;1228;51.022;6.764;2023-03-01T07:31:41;11.30;;;10.23;;
2434;SDS011;1228;51.022;6.764;2023-03-01T07:34:06;12.83;;;11.53;;
2434;SDS011;1228;51.022;6.764;2023-03-01T07:36:32;12.20;;;10.97;;
2434;SDS011;1228;51.022;6.764;2023-03-01T07:38:57;11.97;;;10.77;;
2434;SDS011;1228;51.022;6.764;2023-03-01T07:41:23;13.07;;;11.87;;
2434;SDS011;1228;51.022;6.764;2023-03-01T07:43:49;11.20;;;10.30;;
2434;SDS011;1228;51.022;6.764;2023-03-01T07:46:14;12.23;;;11.03;;
2434;SDS011;1228;51.022;6.764;2023-03-01T07:48:40;11.33;;;10.00;;
2434;SDS011;1228;51.022;6.764;2023-03-01T07:51:06;10.33;;;9.37;;
2434;SDS011;1228;51.022;6.764;2023-03-01T07:53:32;10.37;;;9.47;;
2434;SDS011;1228;51.022;6.764;2023-03-01T07:56:04;9.17;;;8.40;;
2434;SDS011;1228;51.022;6.764;2023-03-01T07:58:38;10.27;;;8.13;;
2434;SDS011;1228;51.022;6.764;2023-03-01T08:03:34;10.83;;;8.97;;
2434;SDS011;1228;51.022;6.764;2023-03-01T08:06:01;9.27;;;8.47;;
2434;SDS011;1228;51.022;6.764;2023-03-01T08:08:27;9.10;;;8.23;;
2434;SDS011;1228;51.022;6.764;2023-03-01T08:10:56;8.30;;;7.70;;
2434;SDS011;1228;51.022;6.764;2023-03-01T08:13:22;11.63;;;8.43;;
2434;SDS011;1228;51.022;6.764;2023-03-01T08:15:48;9.87;;;7.90;;
2434;SDS011;1228;51.022;6.764;2023-03-01T08:18:14;8.53;;;7.77;;
2434;SDS011;1228;51.022;6.764;2023-03-01T08:20:41;8.60;;;8.00;;
2434;SDS011;1228;51.022;6.764;2023-03-01T08:23:06;9.23;;;8.43;;
2434;SDS011;1228;51.022;6.764;2023-03-01T08:25:32;8.43;;;7.70;;
2434;SDS011;1228;51.022;6.764;2023-03-01T08:27:58;7.73;;;7.17;;
2434;SDS011;1228;51.022;6.764;2023-03-01T08:30:23;8.83;;;8.03;;
2434;SDS011;1228;51.022;6.764;2023-03-01T08:32:49;16.10;;;7.67;;
2434;SDS011;1228;51.022;6.764;2023-03-01T08:35:15;9.17;;;8.40;;
2434;SDS011;1228;51.022;6.764;2023-03-01T08:37:41;14.57;;;8.33;;
2434;SDS011;1228;51.022;6.764;2023-03-01T08:40:07;8.10;;;7.40;;
2434;SDS011;1228;51.022;6.764;2023-03-01T08:42:35;8.53;;;7.73;;
2434;SDS011;1228;51.022;6.764;2023-03-01T08:45:01;8.93;;;8.10;;
2434;SDS011;1228;51.022;6.764;2023-03-01T08:47:28;8.53;;;7.83;;
2434;SDS011;1228;51.022;6.764;2023-03-01T08:49:53;8.97;;;8.17;;
2434;SDS011;1228;51.022;6.764;2023-03-01T08:52:19;7.90;;;7.40;;
2434;SDS011;1228;51.022;6.764;2023-03-01T08:54:47;8.40;;;7.57;;
2434;SDS011;1228;51.022;6.764;2023-03-01T08:57:13;8.80;;;8.10;;
2434;SDS011;1228;51.022;6.764;2023-03-01T08:59:39;10.83;;;8.70;;
2434;SDS011;1228;51.022;6.764;2023-03-01T09:02:08;8.33;;;7.53;;
2434;SDS011;1228;51.022;6.764;2023-03-01T09:04:39;9.20;;;8.40;;
2434;SDS011;1228;51.022;6.764;2023-03-01T09:07:05;10.23;;;8.23;;
2434;SDS011;1228;51.022;6.764;2023-03-01T09:09:30;7.87;;;7.17;;
2434;SDS011;1228;51.022;6.764;2023-03-01T09:11:56;9.47;;;8.57;;
2434;SDS011;1228;51.022;6.764;2023-03-01T09:14:22;9.63;;;8.67;;
2434;SDS011;1228;51.022;6.764;2023-03-01T09:16:47;8.73;;;8.03;;
2434;SDS011;1228;51.022;6.764;2023-03-01T09:19:13;8.80;;;8.10;;
2434;SDS011;1228;51.022;6.764;2023-03-01T09:21:39;9.10;;;7.77;;
2434;SDS011;1228;51.022;6.764;2023-03-01T09:24:05;9.00;;;8.20;;
2434;SDS011;1228;51.022;6.764;2023-03-01T09:26:40;9.53;;;8.53;;
2434;SDS011;1228;51.022;6.764;2023-03-01T09:29:06;8.60;;;7.80;;
2434;SDS011;1228;51.022;6.764;2023-03-01T09:31:31;8.80;;;8.07;;
2434;SDS011;1228;51.022;6.764;2023-03-01T09:33:57;12.57;;;7.93;;
2434;SDS011;1228;51.022;6.764;2023-03-01T09:36:23;8.77;;;7.93;;
2434;SDS011;1228;51.022;6.764;2023-03-01T09:38:50;8.87;;;8.13;;
2434;SDS011;1228;51.022;6.764;2023-03-01T09:47:21;10.50;;;7.13;;
2434;SDS011;1228;51.022;6.764;2023-03-01T09:52:42;8.90;;;8.00;;
2434;SDS011;1228;51.022;6.764;2023-03-01T09:55:15;8.10;;;7.23;;
2434;SDS011;1228;51.022;6.764;2023-03-01T09:57:53;8.37;;;7.50;;
2434;SDS011;1228;51.022;6.764;2023-03-01T10:05:48;7.50;;;6.87;;
2434;SDS011;1228;51.022;6.764;2023-03-01T10:10:54;9.17;;;8.30;;
2434;SDS011;1228;51.022;6.764;2023-03-01T10:13:26;8.77;;;7.87;;
2434;SDS011;1228;51.022;6.764;2023-03-01T10:16:16;9.97;;;8.87;;
2434;SDS011;1228;51.022;6.764;2023-03-01T10:18:47;8.17;;;7.47;;
2434;SDS011;1228;51.022;6.764;2023-03-01T10:21:19;8.17;;;6.97;;
2434;SDS011;1228;51.022;6.764;2023-03-01T10:23:46;8.10;;;7.13;;
2434;SDS011;1228;51.022;6.764;2023-03-01T10:29:04;7.67;;;6.97;;
2434;SDS011;1228;51.022;6.764;2023-03-01T10:31:48;8.93;;;8.03;;
2434;SDS011;1228;51.022;6.764;2023-03-01T10:36:43;11.97;;;7.73;;
2434;SDS011;1228;51.022;6.764;2023-03-01T10:39:13;7.37;;;6.73;;
2434;SDS011;1228;51.022;6.764;2023-03-01T10:41:57;7.67;;;7.07;;
2434;SDS011;1228;51.022;6.764;2023-03-01T10:47:03;8.80;;;6.87;;
2434;SDS011;1228;51.022;6.764;2023-03-01T10:49:29;8.37;;;6.83;;
2434;SDS011;1228;51.022;6.764;2023-03-01T10:51:54;7.70;;;6.90;;
2434;SDS011;1228;51.022;6.764;2023-03-01T10:56:57;9.73;;;6.30;;
2434;SDS011;1228;51.022;6.764;2023-03-01T10:59:35;7.40;;;6.63;;
2434;SDS011;1228;51.022;6.764;2023-03-01T11:04:56;7.80;;;7.03;;
2434;SDS011;1228;51.022;6.764;2023-03-01T11:07:25;7.67;;;6.90;;
2434;SDS011;1228;51.022;6.764;2023-03-01T11:09:51;14.77;;;11.17;;
2434;SDS011;1228;51.022;6.764;2023-03-01T11:12:17;7.47;;;6.53;;
2434;SDS011;1228;51.022;6.764;2023-03-01T11:15:01;7.40;;;6.80;;
2434;SDS011;1228;51.022;6.764;2023-03-01T11:17:28;6.40;;;5.90;;
2434;SDS011;1228;51.022;6.764;2023-03-01T11:22:43;7.17;;;6.57;;
2434;SDS011;1228;51.022;6.764;2023-03-01T11:25:19;6.97;;;6.30;;
2434;SDS011;1228;51.022;6.764;2023-03-01T11:28:07;7.00;;;6.40;;
2434;SDS011;1228;51.022;6.764;2023-03-01T11:33:17;9.27;;;8.43;;
2434;SDS011;1228;51.022;6.764;2023-03-01T11:36:11;10.90;;;9.33;;
2434;SDS011;1228;51.022;6.764;2023-03-01T11:39:15;7.43;;;6.73;;
2434;SDS011;1228;51.022;6.764;2023-03-01T11:42:14;8.73;;;6.23;;
2434;SDS011;1228;51.022;6.764;2023-03-01T11:44:45;9.33;;;7.20;;
2434;SDS011;1228;51.022;6.764;2023-03-01T11:52:48;7.93;;;6.83;;
2434;SDS011;1228;51.022;6.764;2023-03-01T12:04:41;7.30;;;6.70;;
2434;SDS011;1228;51.022;6.764;2023-03-01T12:06:50;7.20;;;6.60;;
2434;SDS011;1228;51.022;6.764;2023-03-01T12:09:38;7.23;;;6.47;;
2434;SDS011;1228;51.022;6.764;2023-03-01T12:17:54;7.07;;;6.57;;
2434;SDS011;1228;51.022;6.764;2023-03-01T12:20:31;7.53;;;6.93;;
2434;SDS011;1228;51.022;6.764;2023-03-01T12:25:49;6.93;;;6.33;;
2434;SDS011;1228;51.022;6.764;2023-03-01T12:31:20;6.40;;;6.00;;
2434;SDS011;1228;51.022;6.764;2023-03-01T12:42:36;7.63;;;7.00;;
2434;SDS011;1228;51.022;6.764;2023-03-01T12:53:14;8.13;;;6.50;;
2434;SDS011;1228;51.022;6.764;2023-03-01T12:55:54;7.63;;;6.73;;
2434;SDS011;1228;51.022;6.764;2023-03-01T13:01:04;7.47;;;6.77;;
2434;SDS011;1228;51.022;6.764;2023-03-01T13:17:48;8.97;;;8.13;;
2434;SDS011;1228;51.022;6.764;2023-03-01T13:20:19;9.33;;;8.00;;
2434;SDS011;1228;51.022;6.764;2023-03-01T13:23:00;8.03;;;7.20;;
2434;SDS011;1228;51.022;6.764;2023-03-01T13:25:28;8.23;;;7.40;;
2434;SDS011;1228;51.022;6.764;2023-03-01T13:28:32;7.67;;;6.90;;
2434;SDS011;1228;51.022;6.764;2023-03-01T13:30:58;7.67;;;6.83;;
2434;SDS011;1228;51.022;6.764;2023-03-01T13:35:53;7.40;;;6.67;;
2434;SDS011;1228;51.022;6.764;2023-03-01T13:41:11;7.73;;;6.93;;
2434;SDS011;1228;51.022;6.764;2023-03-01T13:43:38;8.20;;;7.40;;
2434;SDS011;1228;51.022;6.764;2023-03-01T13:46:11;7.63;;;6.97;;
2434;SDS011;1228;51.022;6.764;2023-03-01T13:48:42;7.43;;;6.83;;
2434;SDS011;1228;51.022;6.764;2023-03-01T13:51:11;6.90;;;6.20;;
2434;SDS011;1228;51.022;6.764;2023-03-01T13:53:42;11.77;;;7.37;;
2434;SDS011;1228;51.022;6.764;2023-03-01T13:56:14;7.10;;;6.40;;
2434;SDS011;1228;51.022;6.764;2023-03-01T13:58:50;6.83;;;6.17;;
2434;SDS011;1228;51.022;6.764;2023-03-01T14:03:51;8.97;;;7.00;;
2434;SDS011;1228;51.022;6.764;2023-03-01T14:06:21;6.90;;;6.40;;
2434;SDS011;1228;51.022;6.764;2023-03-01T14:08:59;6.63;;;6.03;;
2434;SDS011;1228;51.022;6.764;2023-03-01T14:19:24;8.23;;;6.33;;
2434;SDS011;1228;51.022;6.764;2023-03-01T14:21:58;7.00;;;5.83;;
2434;SDS011;1228;51.022;6.764;2023-03-01T14:24:53;7.47;;;6.30;;
2434;SDS011;1228;51.022;6.764;2023-03-01T14:27:28;8.07;;;6.93;;
2434;SDS011;1228;51.022;6.764;2023-03-01T14:30:04;10.97;;;6.53;;
2434;SDS011;1228;51.022;6.764;2023-03-01T14:32:37;7.37;;;6.80;;
2434;SDS011;1228;51.022;6.764;2023-03-01T14:35:19;7.27;;;6.70;;
2434;SDS011;1228;51.022;6.764;2023-03-01T14:37:46;7.57;;;6.60;;
2434;SDS011;1228;51.022;6.764;2023-03-01T14:40:23;7.30;;;6.53;;
2434;SDS011;1228;51.022;6.764;2023-03-01T14:42:55;7.30;;;6.70;;
2434;SDS011;1228;51.022;6.764;2023-03-01T14:45:25;11.13;;;5.77;;
2434;SDS011;1228;51.022;6.764;2023-03-01T14:47:52;7.30;;;6.60;;
2434;SDS011;1228;51.022;6.764;2023-03-01T14:50:30;6.77;;;6.17;;
2434;SDS011;1228;51.022;6.764;2023-03-01T14:53:06;6.90;;;6.30;;
2434;SDS011;1228;51.022;6.764;2023-03-01T14:55:44;7.03;;;6.43;;
2434;SDS011;1228;51.022;6.764;2023-03-01T14:58:13;7.13;;;6.53;;
2434;SDS011;1228;51.022;6.764;2023-03-01T15:00:48;6.50;;;6.00;;
2434;SDS011;1228;51.022;6.764;2023-03-01T15:05:55;6.57;;;6.10;;
2434;SDS011;1228;51.022;6.764;2023-03-01T15:08:23;7.23;;;6.57;;
2434;SDS011;1228;51.022;6.764;2023-03-01T15:10:57;7.23;;;6.60;;
2434;SDS011;1228;51.022;6.764;2023-03-01T15:13:24;9.00;;;6.20;;
2434;SDS011;1228;51.022;6.764;2023-03-01T15:15:51;8.23;;;7.07;;
2434;SDS011;1228;51.022;6.764;2023-03-01T15:18:26;7.70;;;7.00;;
2434;SDS011;1228;51.022;6.764;2023-03-01T15:20:54;8.00;;;7.20;;
2434;SDS011;1228;51.022;6.764;2023-03-01T15:23:25;7.73;;;7.00;;
2434;SDS011;1228;51.022;6.764;2023-03-01T15:25:52;6.53;;;6.03;;
2434;SDS011;1228;51.022;6.764;2023-03-01T15:28:30;8.50;;;7.17;;
2434;SDS011;1228;51.022;6.764;2023-03-01T15:31:04;6.53;;;6.03;;
2434;SDS011;1228;51.022;6.764;2023-03-01T15:33:41;6.77;;;6.17;;
2434;SDS011;1228;51.022;6.764;2023-03-01T15:39:23;7.30;;;6.80;;
2434;SDS011;1228;51.022;6.764;2023-03-01T15:42:13;7.40;;;6.70;;
2434;SDS011;1228;51.022;6.764;2023-03-01T15:47:58;7.23;;;6.60;;
2434;SDS011;1228;51.022;6.764;2023-03-01T15:50:33;7.73;;;7.10;;
2434;SDS011;1228;51.022;6.764;2023-03-01T15:53:04;8.80;;;7.83;;
2434;SDS011;1228;51.022;6.764;2023-03-01T15:55:33;7.53;;;6.93;;
2434;SDS011;1228;51.022;6.764;2023-03-01T16:00:34;8.37;;;7.57;;
2434;SDS011;1228;51.022;6.764;2023-03-01T16:03:00;8.30;;;7.50;;
2434;SDS011;1228;51.022;6.764;2023-03-01T16:05:29;8.13;;;7.27;;
2434;SDS011;1228;51.022;6.764;2023-03-01T16:07:57;8.67;;;7.63;;
2434;SDS011;1228;51.022;6.764;2023-03-01T16:10:23;7.57;;;7.00;;
2434;SDS011;1228;51.022;6.764;2023-03-01T16:12:49;8.23;;;7.57;;
2434;SDS011;1228;51.022;6.764;2023-03-01T16:15:20;8.33;;;7.63;;
2434;SDS011;1228;51.022;6.764;2023-03-01T16:17:49;7.70;;;7.07;;
2434;SDS011;1228;51.022;6.764;2023-03-01T16:20:14;8.00;;;7.30;;
2434;SDS011;1228;51.022;6.764;2023-03-01T16:22:41;8.00;;;7.40;;
2434;SDS011;1228;51.022;6.764;2023-03-01T16:25:08;9.70;;;8.37;;
2434;SDS011;1228;51.022;6.764;2023-03-01T16:27:35;8.37;;;7.57;;
2434;SDS011;1228;51.022;6.764;2023-03-01T16:30:00;7.43;;;6.93;;
2434;SDS011;1228;51.022;6.764;2023-03-01T16:32:26;12.30;;;8.57;;
2434;SDS011;1228;51.022;6.764;2023-03-01T16:34:51;7.97;;;6.67;;
2434;SDS011;1228;51.022;6.764;2023-03-01T16:37:17;7.83;;;7.27;;
2434;SDS011;1228;51.022;6.764;2023-03-01T16:39:44;7.67;;;6.97;;
2434;SDS011;1228;51.022;6.764;2023-03-01T16:42:09;7.63;;;6.80;;
2434;SDS011;1228;51.022;6.764;2023-03-01T16:44:35;8.10;;;7.30;;
2434;SDS011;1228;51.022;6.764;2023-03-01T16:47:00;10.37;;;9.57;;
2434;SDS011;1228;51.022;6.764;2023-03-01T16:49:26;18.20;;;11.07;;
2434;SDS011;1228;51.022;6.764;2023-03-01T16:51:53;6.90;;;6.50;;
2434;SDS011;1228;51.022;6.764;2023-03-01T16:54:19;8.40;;;7.83;;
2434;SDS011;1228;51.022;6.764;2023-03-01T16:56:44;6.90;;;6.27;;
2434;SDS011;1228;51.022;6.764;2023-03-01T16:59:10;6.67;;;6.17;;
2434;SDS011;1228;51.022;6.764;2023-03-01T17:01:35;7.07;;;6.47;;
2434;SDS011;1228;51.022;6.764;2023-03-01T17:04:05;7.13;;;6.50;;
2434;SDS011;1228;51.022;6.764;2023-03-01T17:06:32;7.10;;;6.40;;
2434;SDS011;1228;51.022;6.764;2023-03-01T17:08:58;7.63;;;7.13;;
2434;SDS011;1228;51.022;6.764;2023-03-01T17:11:24;10.87;;;7.57;;
2434;SDS011;1228;51.022;6.764;2023-03-01T17:13:50;7.50;;;7.00;;
2434;SDS011;1228;51.022;6.764;2023-03-01T17:16:16;7.50;;;6.90;;
2434;SDS011;1228;51.022;6.764;2023-03-01T17:18:44;7.80;;;7.20;;
2434;SDS011;1228;51.022;6.764;2023-03-01T17:21:10;8.40;;;7.80;;
2434;SDS011;1228;51.022;6.764;2023-03-01T17:23:37;7.47;;;6.73;;
2434;SDS011;1228;51.022;6.764;2023-03-01T17:26:04;6.97;;;6.47;;
2434;SDS011;1228;51.022;6.764;2023-03-01T17:28:31;8.20;;;7.37;;
2434;SDS011;1228;51.022;6.764;2023-03-01T17:30:58;7.30;;;6.67;;
2434;SDS011;1228;51.022;6.764;2023-03-01T17:33:25;7.17;;;6.57;;
2434;SDS011;1228;51.022;6.764;2023-03-01T17:35:51;7.37;;;6.67;;
2434;SDS011;1228;51.022;6.764;2023-03-01T17:38:17;7.83;;;7.13;;
2434;SDS011;1228;51.022;6.764;2023-03-01T17:40:43;7.23;;;6.70;;